AUA9KP LOWI-LIRF
Flight info
| Callsign | AUA9KP |
|---|---|
| Flight time | 1h 20m |
| Altitude | 35000 |
| Route | BRENO M726 GAVRA Y345 RITEB |
| Aircraft | A320/M-SDE3FGHIRWY/LB1 |
Departure
| Time | 2026-05-07 17:53 |
|---|---|
| Airport | Innsbruck Airport (LOWI) |
Arrival
| Time | 2026-05-07 19:14 |
|---|---|
| Airport | Rome–Fiumicino Leonardo da Vinci International Airport (LIRF) |
| Time | Latitude | Longitude | Altitude | Speed | Heading |
|---|---|---|---|---|---|
| 2026-05-07 17:40 | 47.25814 | 11.34990 | 1881 ft | 0 kts | 171° |
| 2026-05-07 17:42 | 47.25815 | 11.34990 | 1880 ft | 0 kts | 171° |
| 2026-05-07 17:45 | 47.25818 | 11.34989 | 1908 ft | 2 kts | 171° |
| 2026-05-07 17:45 | 47.25836 | 11.34985 | 1893 ft | 3 kts | 171° |
| 2026-05-07 17:46 | 47.25855 | 11.34980 | 1897 ft | 3 kts | 180° |
| 2026-05-07 17:46 | 47.25870 | 11.34986 | 1892 ft | 3 kts | 246° |
| 2026-05-07 17:46 | 47.25874 | 11.35003 | 1892 ft | 1 kts | 261° |
| 2026-05-07 17:46 | 47.25876 | 11.35025 | 1896 ft | 1 kts | 261° |
| 2026-05-07 17:47 | 47.25876 | 11.35028 | 1896 ft | 3 kts | 261° |
| 2026-05-07 17:48 | 47.25874 | 11.35011 | 1895 ft | 6 kts | 261° |
| 2026-05-07 17:49 | 47.25861 | 11.34887 | 1904 ft | 18 kts | 261° |
| 2026-05-07 17:49 | 47.25836 | 11.34661 | 1910 ft | 26 kts | 261° |
| 2026-05-07 17:49 | 47.25809 | 11.34394 | 1908 ft | 26 kts | 261° |
| 2026-05-07 17:49 | 47.25799 | 11.34117 | 1909 ft | 28 kts | 262° |
| 2026-05-07 17:50 | 47.25808 | 11.33878 | 1917 ft | 11 kts | 313° |
| 2026-05-07 17:50 | 47.25814 | 11.33868 | 1917 ft | 0 kts | 309° |
| 2026-05-07 17:51 | 47.25819 | 11.33858 | 1917 ft | 5 kts | 308° |
| 2026-05-07 17:51 | 47.25863 | 11.33777 | 1917 ft | 15 kts | 306° |
| 2026-05-07 17:52 | 47.25928 | 11.33634 | 1918 ft | 8 kts | 317° |
| 2026-05-07 17:52 | 47.25940 | 11.33638 | 1917 ft | 0 kts | 50° |
| 2026-05-07 17:52 | 47.25940 | 11.33653 | 1917 ft | 0 kts | 82° |
| 2026-05-07 17:53 | 47.25977 | 11.34002 | 1915 ft | 76 kts | 81° |
| 2026-05-07 17:53 | 47.26100 | 11.35123 | 1903 ft | 145 kts | 81° |
| 2026-05-07 17:53 | 47.26273 | 11.36666 | 2584 ft | 155 kts | 81° |
| 2026-05-07 17:53 | 47.26439 | 11.38279 | 3434 ft | 162 kts | 82° |
| 2026-05-07 17:54 | 47.26595 | 11.39977 | 4311 ft | 168 kts | 82° |
| 2026-05-07 17:54 | 47.26736 | 11.41695 | 5230 ft | 170 kts | 84° |
| 2026-05-07 17:54 | 47.26868 | 11.43424 | 6191 ft | 176 kts | 82° |
| 2026-05-07 17:54 | 47.27112 | 11.45238 | 7003 ft | 185 kts | 71° |
| 2026-05-07 17:55 | 47.27564 | 11.47008 | 7821 ft | 180 kts | 66° |
| 2026-05-07 17:55 | 47.28081 | 11.48741 | 8237 ft | 189 kts | 65° |
| 2026-05-07 17:55 | 47.28636 | 11.50551 | 8549 ft | 203 kts | 64° |
| 2026-05-07 17:55 | 47.29244 | 11.52559 | 8717 ft | 226 kts | 65° |
| 2026-05-07 17:56 | 47.29908 | 11.54795 | 8905 ft | 251 kts | 66° |
| 2026-05-07 17:56 | 47.30620 | 11.57241 | 9353 ft | 266 kts | 67° |
| 2026-05-07 17:56 | 47.31033 | 11.59924 | 10063 ft | 273 kts | 90° |
| 2026-05-07 17:56 | 47.30633 | 11.62659 | 10758 ft | 277 kts | 117° |
| 2026-05-07 17:57 | 47.29442 | 11.64863 | 11433 ft | 281 kts | 143° |
| 2026-05-07 17:57 | 47.28301 | 11.65832 | 11606 ft | 293 kts | 163° |
| 2026-05-07 17:57 | 47.25520 | 11.65865 | 11915 ft | 316 kts | 202° |
| 2026-05-07 17:57 | 47.23568 | 11.64217 | 12094 ft | 336 kts | 216° |
| 2026-05-07 17:58 | 47.21618 | 11.62200 | 12574 ft | 347 kts | 217° |
| 2026-05-07 17:58 | 47.19644 | 11.60118 | 13205 ft | 351 kts | 217° |
| 2026-05-07 17:58 | 47.17648 | 11.58013 | 13860 ft | 355 kts | 217° |
| 2026-05-07 17:58 | 47.15622 | 11.55890 | 14471 ft | 359 kts | 217° |
| 2026-05-07 17:59 | 47.13574 | 11.53757 | 15094 ft | 362 kts | 217° |
| 2026-05-07 17:59 | 47.11535 | 11.51643 | 15690 ft | 366 kts | 217° |
| 2026-05-07 17:59 | 47.09441 | 11.49478 | 16318 ft | 370 kts | 217° |
| 2026-05-07 17:59 | 47.07332 | 11.47297 | 16931 ft | 373 kts | 217° |
| 2026-05-07 18:00 | 47.05199 | 11.45092 | 17527 ft | 376 kts | 217° |
| 2026-05-07 18:00 | 47.03055 | 11.42874 | 18131 ft | 379 kts | 217° |
| 2026-05-07 18:00 | 47.00889 | 11.40645 | 18663 ft | 382 kts | 216° |
| 2026-05-07 18:00 | 46.98542 | 11.38774 | 19164 ft | 386 kts | 205° |
| 2026-05-07 18:01 | 46.95961 | 11.37602 | 19631 ft | 392 kts | 193° |
| 2026-05-07 18:01 | 46.93234 | 11.37136 | 20126 ft | 397 kts | 186° |
| 2026-05-07 18:01 | 46.90475 | 11.36850 | 20643 ft | 399 kts | 186° |
| 2026-05-07 18:01 | 46.87700 | 11.36554 | 21153 ft | 401 kts | 186° |
| 2026-05-07 18:02 | 46.82103 | 11.35937 | 22139 ft | 405 kts | 186° |
| 2026-05-07 18:02 | 46.79312 | 11.35627 | 22591 ft | 408 kts | 186° |
| 2026-05-07 18:02 | 46.76470 | 11.35313 | 23070 ft | 411 kts | 187° |
| 2026-05-07 18:03 | 46.73577 | 11.35005 | 23531 ft | 412 kts | 186° |
| 2026-05-07 18:03 | 46.70742 | 11.34712 | 23908 ft | 415 kts | 187° |
| 2026-05-07 18:03 | 46.67850 | 11.34416 | 24277 ft | 418 kts | 187° |
| 2026-05-07 18:03 | 46.64939 | 11.34117 | 24614 ft | 420 kts | 187° |
| 2026-05-07 18:04 | 46.62017 | 11.33818 | 25006 ft | 423 kts | 187° |
| 2026-05-07 18:04 | 46.59078 | 11.33517 | 25369 ft | 424 kts | 187° |
| 2026-05-07 18:04 | 46.56122 | 11.33213 | 25720 ft | 426 kts | 187° |
| 2026-05-07 18:04 | 46.53157 | 11.32904 | 26071 ft | 429 kts | 188° |
| 2026-05-07 18:05 | 46.50177 | 11.32596 | 26403 ft | 431 kts | 188° |
| 2026-05-07 18:05 | 46.47177 | 11.32336 | 26764 ft | 435 kts | 185° |
| 2026-05-07 18:05 | 46.44134 | 11.32616 | 27107 ft | 442 kts | 177° |
| 2026-05-07 18:05 | 46.41076 | 11.33187 | 27440 ft | 444 kts | 178° |
| 2026-05-07 18:06 | 46.38006 | 11.33754 | 27793 ft | 446 kts | 178° |
| 2026-05-07 18:06 | 46.34910 | 11.34321 | 28122 ft | 449 kts | 178° |
| 2026-05-07 18:06 | 46.31803 | 11.34889 | 28413 ft | 451 kts | 178° |
| 2026-05-07 18:06 | 46.28692 | 11.35454 | 28825 ft | 453 kts | 179° |
| 2026-05-07 18:07 | 46.25553 | 11.36024 | 29127 ft | 455 kts | 179° |
| 2026-05-07 18:07 | 46.22403 | 11.36597 | 29434 ft | 457 kts | 179° |
| 2026-05-07 18:07 | 46.19244 | 11.37174 | 29737 ft | 459 kts | 179° |
| 2026-05-07 18:07 | 46.16061 | 11.37754 | 30029 ft | 461 kts | 179° |
| 2026-05-07 18:08 | 46.12869 | 11.38337 | 30384 ft | 461 kts | 179° |
| 2026-05-07 18:08 | 46.09697 | 11.38914 | 30763 ft | 459 kts | 179° |
| 2026-05-07 18:08 | 46.06531 | 11.39487 | 31085 ft | 458 kts | 180° |
| 2026-05-07 18:08 | 46.03375 | 11.40056 | 31420 ft | 456 kts | 180° |
| 2026-05-07 18:09 | 46.00228 | 11.40624 | 31781 ft | 455 kts | 180° |
| 2026-05-07 18:09 | 45.97093 | 11.41193 | 32134 ft | 454 kts | 180° |
| 2026-05-07 18:09 | 45.93963 | 11.41759 | 32479 ft | 452 kts | 180° |
| 2026-05-07 18:09 | 45.90846 | 11.42320 | 32815 ft | 451 kts | 180° |
| 2026-05-07 18:10 | 45.87734 | 11.42882 | 33159 ft | 450 kts | 180° |
| 2026-05-07 18:10 | 45.84634 | 11.43443 | 33500 ft | 449 kts | 180° |
| 2026-05-07 18:10 | 45.81540 | 11.43999 | 33870 ft | 448 kts | 180° |
| 2026-05-07 18:10 | 45.78450 | 11.44552 | 34204 ft | 446 kts | 180° |
| 2026-05-07 18:11 | 45.75376 | 11.45103 | 34496 ft | 446 kts | 180° |
| 2026-05-07 18:11 | 45.73335 | 11.45468 | 34674 ft | 445 kts | 180° |
| 2026-05-07 18:11 | 45.69229 | 11.46200 | 34947 ft | 445 kts | 180° |
| 2026-05-07 18:12 | 45.63134 | 11.47290 | 34980 ft | 443 kts | 180° |
| 2026-05-07 18:12 | 45.57021 | 11.48382 | 34974 ft | 443 kts | 180° |
| 2026-05-07 18:13 | 45.50908 | 11.49463 | 34979 ft | 442 kts | 180° |
| 2026-05-07 18:13 | 45.44801 | 11.50543 | 34979 ft | 442 kts | 180° |
| 2026-05-07 18:14 | 45.38703 | 11.51619 | 34983 ft | 441 kts | 180° |
| 2026-05-07 18:14 | 45.32616 | 11.52695 | 34988 ft | 441 kts | 180° |
| 2026-05-07 18:15 | 45.26522 | 11.53765 | 34986 ft | 441 kts | 180° |
| 2026-05-07 18:15 | 45.20433 | 11.54837 | 34994 ft | 440 kts | 180° |
| 2026-05-07 18:16 | 45.14352 | 11.55904 | 35002 ft | 440 kts | 180° |
| 2026-05-07 18:16 | 45.08277 | 11.56973 | 35004 ft | 440 kts | 180° |
| 2026-05-07 18:17 | 45.02207 | 11.58038 | 35001 ft | 439 kts | 180° |
| 2026-05-07 18:17 | 44.96132 | 11.59090 | 35003 ft | 439 kts | 180° |
| 2026-05-07 18:18 | 44.90073 | 11.60134 | 35005 ft | 439 kts | 180° |
| 2026-05-07 18:18 | 44.84011 | 11.61193 | 35007 ft | 439 kts | 180° |
| 2026-05-07 18:19 | 44.77953 | 11.62278 | 35005 ft | 439 kts | 180° |
| 2026-05-07 18:19 | 44.71903 | 11.63526 | 34994 ft | 440 kts | 179° |
| 2026-05-07 18:20 | 44.65851 | 11.64816 | 34991 ft | 440 kts | 179° |
| 2026-05-07 18:20 | 44.59802 | 11.66068 | 34984 ft | 439 kts | 179° |
| 2026-05-07 18:21 | 44.53757 | 11.67289 | 34983 ft | 439 kts | 180° |
| 2026-05-07 18:21 | 44.47705 | 11.68498 | 34987 ft | 439 kts | 180° |
| 2026-05-07 18:22 | 44.41654 | 11.69720 | 34993 ft | 439 kts | 179° |
| 2026-05-07 18:22 | 44.35613 | 11.70947 | 34995 ft | 439 kts | 180° |
| 2026-05-07 18:23 | 44.29567 | 11.72166 | 34991 ft | 439 kts | 180° |
| 2026-05-07 18:23 | 44.23563 | 11.73367 | 34988 ft | 438 kts | 180° |
| 2026-05-07 18:24 | 44.17526 | 11.74575 | 34977 ft | 438 kts | 179° |
| 2026-05-07 18:24 | 44.11496 | 11.75785 | 34969 ft | 438 kts | 180° |
| 2026-05-07 18:25 | 44.05459 | 11.76976 | 34975 ft | 438 kts | 180° |
| 2026-05-07 18:25 | 44.00445 | 11.77964 | 34972 ft | 438 kts | 180° |
| 2026-05-07 18:26 | 43.94419 | 11.79151 | 34969 ft | 437 kts | 180° |
| 2026-05-07 18:26 | 43.88396 | 11.80350 | 34969 ft | 436 kts | 180° |
| 2026-05-07 18:27 | 43.82389 | 11.81542 | 34966 ft | 435 kts | 180° |
| 2026-05-07 18:27 | 43.76380 | 11.82764 | 34992 ft | 438 kts | 178° |
| 2026-05-07 18:28 | 43.70342 | 11.84538 | 34999 ft | 447 kts | 174° |
| 2026-05-07 18:28 | 43.64291 | 11.86651 | 35005 ft | 449 kts | 174° |
| 2026-05-07 18:29 | 43.58233 | 11.88709 | 34993 ft | 447 kts | 175° |
| 2026-05-07 18:29 | 43.52175 | 11.90621 | 34995 ft | 446 kts | 176° |
| 2026-05-07 18:30 | 43.46120 | 11.92497 | 34988 ft | 446 kts | 175° |
| 2026-05-07 18:30 | 43.40075 | 11.94403 | 34990 ft | 446 kts | 175° |
| 2026-05-07 18:31 | 43.34032 | 11.96318 | 34988 ft | 445 kts | 175° |
| 2026-05-07 18:31 | 43.27991 | 11.98229 | 34983 ft | 445 kts | 175° |
| 2026-05-07 18:32 | 43.21955 | 12.00137 | 34982 ft | 445 kts | 175° |
| 2026-05-07 18:32 | 43.15932 | 12.02031 | 34981 ft | 444 kts | 175° |
| 2026-05-07 18:33 | 43.09955 | 12.03900 | 34985 ft | 443 kts | 176° |
| 2026-05-07 18:33 | 43.03916 | 12.05783 | 34980 ft | 442 kts | 176° |
| 2026-05-07 18:34 | 42.97960 | 12.07640 | 34981 ft | 441 kts | 176° |
| 2026-05-07 18:34 | 42.91968 | 12.09505 | 34972 ft | 442 kts | 176° |
| 2026-05-07 18:35 | 42.85982 | 12.11374 | 34972 ft | 441 kts | 176° |
| 2026-05-07 18:35 | 42.79998 | 12.13235 | 34978 ft | 441 kts | 176° |
| 2026-05-07 18:36 | 42.74012 | 12.15090 | 34975 ft | 441 kts | 176° |
| 2026-05-07 18:36 | 42.68135 | 12.17713 | 34972 ft | 460 kts | 159° |
| 2026-05-07 18:37 | 42.62581 | 12.22101 | 34969 ft | 462 kts | 158° |
| 2026-05-07 18:37 | 42.57056 | 12.26579 | 34971 ft | 463 kts | 158° |
| 2026-05-07 18:38 | 42.51529 | 12.31032 | 34964 ft | 462 kts | 158° |
| 2026-05-07 18:38 | 42.45987 | 12.35434 | 34968 ft | 461 kts | 158° |
| 2026-05-07 18:39 | 42.40445 | 12.39822 | 34965 ft | 461 kts | 158° |
| 2026-05-07 18:39 | 42.34816 | 12.43796 | 34957 ft | 447 kts | 170° |
| 2026-05-07 18:40 | 42.28934 | 12.46326 | 34969 ft | 446 kts | 171° |
| 2026-05-07 18:40 | 42.22987 | 12.47737 | 34955 ft | 420 kts | 197° |
| 2026-05-07 18:40 | 42.20309 | 12.46476 | 34949 ft | 402 kts | 217° |
| 2026-05-07 18:41 | 42.18295 | 12.43974 | 34951 ft | 392 kts | 238° |
| 2026-05-07 18:41 | 42.17230 | 12.40629 | 34950 ft | 391 kts | 259° |
| 2026-05-07 18:41 | 42.17276 | 12.36964 | 34952 ft | 399 kts | 280° |
| 2026-05-07 18:41 | 42.18444 | 12.33528 | 34956 ft | 414 kts | 301° |
| 2026-05-07 18:42 | 42.20601 | 12.30848 | 34965 ft | 435 kts | 322° |
| 2026-05-07 18:42 | 42.23472 | 12.29325 | 34970 ft | 455 kts | 340° |
| 2026-05-07 18:42 | 42.26646 | 12.28712 | 34969 ft | 464 kts | 346° |
| 2026-05-07 18:43 | 42.33012 | 12.27805 | 34936 ft | 448 kts | 345° |
| 2026-05-07 18:43 | 42.36004 | 12.27053 | 34723 ft | 429 kts | 338° |
| 2026-05-07 18:43 | 42.38838 | 12.25976 | 34370 ft | 414 kts | 328° |
| 2026-05-07 18:43 | 42.41168 | 12.23980 | 33973 ft | 384 kts | 306° |
| 2026-05-07 18:44 | 42.42586 | 12.21101 | 33457 ft | 360 kts | 283° |
| 2026-05-07 18:44 | 42.42906 | 12.17848 | 32909 ft | 345 kts | 260° |
| 2026-05-07 18:44 | 42.42162 | 12.14802 | 32359 ft | 343 kts | 243° |
| 2026-05-07 18:44 | 42.40939 | 12.12020 | 31789 ft | 345 kts | 235° |
| 2026-05-07 18:45 | 42.39123 | 12.09945 | 31312 ft | 355 kts | 211° |
| 2026-05-07 18:45 | 42.36690 | 12.09129 | 30804 ft | 373 kts | 187° |
| 2026-05-07 18:45 | 42.34072 | 12.09625 | 30257 ft | 389 kts | 171° |
| 2026-05-07 18:45 | 42.31501 | 12.10896 | 29692 ft | 396 kts | 163° |
| 2026-05-07 18:46 | 42.28966 | 12.12325 | 29146 ft | 390 kts | 170° |
| 2026-05-07 18:46 | 42.26372 | 12.12847 | 28674 ft | 367 kts | 192° |
| 2026-05-07 18:46 | 42.23999 | 12.11978 | 28157 ft | 347 kts | 214° |
| 2026-05-07 18:46 | 42.22086 | 12.10105 | 27618 ft | 337 kts | 230° |
| 2026-05-07 18:47 | 42.20642 | 12.07662 | 27082 ft | 331 kts | 242° |
| 2026-05-07 18:47 | 42.19663 | 12.04874 | 26562 ft | 328 kts | 253° |
| 2026-05-07 18:47 | 42.19199 | 12.01874 | 26088 ft | 327 kts | 266° |
| 2026-05-07 18:47 | 42.19299 | 11.98822 | 25622 ft | 327 kts | 279° |
| 2026-05-07 18:48 | 42.19974 | 11.95894 | 25157 ft | 329 kts | 292° |
| 2026-05-07 18:48 | 42.21189 | 11.93271 | 24697 ft | 333 kts | 306° |
| 2026-05-07 18:48 | 42.22885 | 11.91121 | 24252 ft | 338 kts | 320° |
| 2026-05-07 18:48 | 42.24956 | 11.89589 | 23826 ft | 342 kts | 332° |
| 2026-05-07 18:49 | 42.27178 | 11.88417 | 23406 ft | 343 kts | 336° |
| 2026-05-07 18:49 | 42.29447 | 11.87411 | 22933 ft | 342 kts | 338° |
| 2026-05-07 18:49 | 42.31725 | 11.86485 | 22481 ft | 341 kts | 339° |
| 2026-05-07 18:49 | 42.33992 | 11.85578 | 22034 ft | 340 kts | 339° |
| 2026-05-07 18:50 | 42.36256 | 11.84668 | 21589 ft | 339 kts | 341° |
| 2026-05-07 18:50 | 42.38607 | 11.84246 | 21159 ft | 344 kts | 356° |
| 2026-05-07 18:50 | 42.40992 | 11.84659 | 20726 ft | 349 kts | 12° |
| 2026-05-07 18:50 | 42.43239 | 11.85941 | 20321 ft | 354 kts | 28° |
| 2026-05-07 18:51 | 42.45163 | 11.88026 | 19942 ft | 357 kts | 45° |
| 2026-05-07 18:51 | 42.46590 | 11.90761 | 19560 ft | 358 kts | 63° |
| 2026-05-07 18:51 | 42.47419 | 11.93933 | 19199 ft | 356 kts | 79° |
| 2026-05-07 18:51 | 42.47579 | 11.97211 | 18849 ft | 353 kts | 96° |
| 2026-05-07 18:52 | 42.47090 | 12.00433 | 18515 ft | 347 kts | 113° |
| 2026-05-07 18:52 | 42.46001 | 12.03307 | 18173 ft | 340 kts | 129° |
| 2026-05-07 18:52 | 42.44427 | 12.05639 | 17796 ft | 332 kts | 144° |
| 2026-05-07 18:52 | 42.42516 | 12.07323 | 17421 ft | 324 kts | 159° |
| 2026-05-07 18:53 | 42.40412 | 12.08323 | 17047 ft | 320 kts | 166° |
| 2026-05-07 18:53 | 42.38296 | 12.09233 | 16689 ft | 318 kts | 166° |
| 2026-05-07 18:53 | 42.36193 | 12.10145 | 16361 ft | 316 kts | 166° |
| 2026-05-07 18:53 | 42.34101 | 12.11049 | 16033 ft | 315 kts | 166° |
| 2026-05-07 18:54 | 42.32022 | 12.11945 | 15730 ft | 313 kts | 166° |
| 2026-05-07 18:54 | 42.29951 | 12.12834 | 15420 ft | 311 kts | 165° |
| 2026-05-07 18:54 | 42.27894 | 12.13717 | 15111 ft | 309 kts | 165° |
| 2026-05-07 18:54 | 42.25847 | 12.14594 | 14791 ft | 308 kts | 165° |
| 2026-05-07 18:55 | 42.23810 | 12.15465 | 14476 ft | 306 kts | 165° |
| 2026-05-07 18:55 | 42.21784 | 12.16334 | 14184 ft | 305 kts | 165° |
| 2026-05-07 18:55 | 42.19768 | 12.17197 | 13885 ft | 303 kts | 165° |
| 2026-05-07 18:55 | 42.17762 | 12.18054 | 13631 ft | 302 kts | 165° |
| 2026-05-07 18:56 | 42.15771 | 12.18901 | 13311 ft | 300 kts | 165° |
| 2026-05-07 18:56 | 42.13756 | 12.19534 | 12974 ft | 295 kts | 179° |
| 2026-05-07 18:56 | 42.11752 | 12.19175 | 12647 ft | 290 kts | 201° |
| 2026-05-07 18:56 | 42.10044 | 12.17849 | 12307 ft | 288 kts | 222° |
| 2026-05-07 18:57 | 42.08880 | 12.15873 | 11993 ft | 287 kts | 243° |
| 2026-05-07 18:57 | 42.08308 | 12.13319 | 11645 ft | 287 kts | 264° |
| 2026-05-07 18:57 | 42.08501 | 12.10654 | 11301 ft | 289 kts | 286° |
| 2026-05-07 18:57 | 42.09437 | 12.08268 | 10936 ft | 291 kts | 308° |
| 2026-05-07 18:58 | 42.10994 | 12.06534 | 10576 ft | 293 kts | 331° |
| 2026-05-07 18:58 | 42.12888 | 12.05500 | 10200 ft | 294 kts | 339° |
| 2026-05-07 18:58 | 42.14823 | 12.04626 | 9845 ft | 293 kts | 341° |
| 2026-05-07 18:58 | 42.16767 | 12.03808 | 9470 ft | 292 kts | 341° |
| 2026-05-07 18:59 | 42.18704 | 12.03006 | 9054 ft | 290 kts | 341° |
| 2026-05-07 18:59 | 42.20644 | 12.02308 | 8686 ft | 289 kts | 352° |
| 2026-05-07 18:59 | 42.22635 | 12.02463 | 8330 ft | 288 kts | 15° |
| 2026-05-07 18:59 | 42.24427 | 12.03620 | 7966 ft | 286 kts | 38° |
| 2026-05-07 19:00 | 42.25751 | 12.05590 | 7582 ft | 283 kts | 60° |
| 2026-05-07 19:00 | 42.26426 | 12.08056 | 7211 ft | 280 kts | 82° |
| 2026-05-07 19:00 | 42.26380 | 12.10647 | 6855 ft | 276 kts | 104° |
| 2026-05-07 19:00 | 42.25643 | 12.13010 | 6482 ft | 273 kts | 125° |
| 2026-05-07 19:01 | 42.24336 | 12.14832 | 6092 ft | 271 kts | 146° |
| 2026-05-07 19:01 | 42.22662 | 12.15947 | 5968 ft | 269 kts | 159° |
| 2026-05-07 19:01 | 42.20887 | 12.16797 | 5968 ft | 272 kts | 162° |
| 2026-05-07 19:01 | 42.19085 | 12.17566 | 6025 ft | 272 kts | 163° |
| 2026-05-07 19:02 | 42.17274 | 12.18314 | 6032 ft | 272 kts | 163° |
| 2026-05-07 19:02 | 42.15466 | 12.19066 | 6042 ft | 272 kts | 162° |
| 2026-05-07 19:02 | 42.13617 | 12.19516 | 6046 ft | 271 kts | 182° |
| 2026-05-07 19:02 | 42.11798 | 12.18899 | 6064 ft | 272 kts | 207° |
| 2026-05-07 19:03 | 42.10355 | 12.17284 | 6072 ft | 272 kts | 233° |
| 2026-05-07 19:03 | 42.09575 | 12.15018 | 6072 ft | 274 kts | 258° |
| 2026-05-07 19:03 | 42.09594 | 12.12471 | 6075 ft | 275 kts | 284° |
| 2026-05-07 19:03 | 42.10425 | 12.10196 | 6070 ft | 276 kts | 310° |
| 2026-05-07 19:04 | 42.11926 | 12.08624 | 6061 ft | 276 kts | 336° |
| 2026-05-07 19:04 | 42.13729 | 12.07734 | 6058 ft | 276 kts | 342° |
| 2026-05-07 19:04 | 42.15560 | 12.06937 | 6041 ft | 276 kts | 342° |
| 2026-05-07 19:04 | 42.17398 | 12.06177 | 6035 ft | 276 kts | 346° |
| 2026-05-07 19:05 | 42.19257 | 12.06008 | 5901 ft | 262 kts | 9° |
| 2026-05-07 19:05 | 42.20930 | 12.06783 | 5773 ft | 249 kts | 32° |
| 2026-05-07 19:05 | 42.22209 | 12.08273 | 5574 ft | 241 kts | 53° |
| 2026-05-07 19:05 | 42.22986 | 12.10237 | 5277 ft | 237 kts | 73° |
| 2026-05-07 19:06 | 42.23195 | 12.12421 | 4966 ft | 235 kts | 94° |
| 2026-05-07 19:06 | 42.21785 | 12.16231 | 4311 ft | 234 kts | 143° |
| 2026-05-07 19:06 | 42.20298 | 12.17085 | 4059 ft | 235 kts | 171° |
| 2026-05-07 19:07 | 42.18654 | 12.17278 | 4089 ft | 239 kts | 174° |
| 2026-05-07 19:07 | 42.16997 | 12.17447 | 4095 ft | 236 kts | 175° |
| 2026-05-07 19:07 | 42.15379 | 12.17611 | 4100 ft | 232 kts | 174° |
| 2026-05-07 19:07 | 42.13775 | 12.17775 | 4116 ft | 231 kts | 174° |
| 2026-05-07 19:08 | 42.12171 | 12.17939 | 4123 ft | 231 kts | 174° |
| 2026-05-07 19:08 | 42.10572 | 12.18106 | 4130 ft | 231 kts | 174° |
| 2026-05-07 19:08 | 42.08971 | 12.18272 | 4140 ft | 231 kts | 174° |
| 2026-05-07 19:08 | 42.07361 | 12.18439 | 4148 ft | 231 kts | 174° |
| 2026-05-07 19:09 | 42.05758 | 12.18603 | 4157 ft | 231 kts | 174° |
| 2026-05-07 19:09 | 42.04176 | 12.18759 | 4160 ft | 231 kts | 177° |
| 2026-05-07 19:09 | 42.02576 | 12.18698 | 3977 ft | 231 kts | 179° |
| 2026-05-07 19:09 | 42.01002 | 12.19150 | 3540 ft | 235 kts | 158° |
| 2026-05-07 19:10 | 41.99457 | 12.19886 | 3201 ft | 236 kts | 160° |
| 2026-05-07 19:10 | 41.97894 | 12.20566 | 2886 ft | 236 kts | 161° |
| 2026-05-07 19:10 | 41.96331 | 12.21223 | 2569 ft | 235 kts | 161° |
| 2026-05-07 19:10 | 41.94794 | 12.21868 | 2267 ft | 226 kts | 162° |
| 2026-05-07 19:11 | 41.93339 | 12.22479 | 1996 ft | 211 kts | 161° |
| 2026-05-07 19:11 | 41.91986 | 12.23047 | 1711 ft | 197 kts | 162° |
| 2026-05-07 19:11 | 41.90728 | 12.23576 | 1458 ft | 182 kts | 162° |
| 2026-05-07 19:11 | 41.89594 | 12.24052 | 1220 ft | 161 kts | 162° |
| 2026-05-07 19:12 | 41.88554 | 12.24489 | 860 ft | 154 kts | 163° |
| 2026-05-07 19:12 | 41.87547 | 12.24911 | 666 ft | 149 kts | 164° |
| 2026-05-07 19:12 | 41.86566 | 12.25321 | 467 ft | 146 kts | 165° |
| 2026-05-07 19:12 | 41.85923 | 12.25592 | 326 ft | 147 kts | 163° |
| 2026-05-07 19:13 | 41.84951 | 12.26007 | 167 ft | 147 kts | 164° |
| 2026-05-07 19:13 | 41.83981 | 12.26404 | 27 ft | 141 kts | 165° |
| 2026-05-07 19:13 | 41.83136 | 12.26756 | 12 ft | 107 kts | 163° |
| 2026-05-07 19:13 | 41.82369 | 12.27087 | 10 ft | 71 kts | 166° |
| 2026-05-07 19:14 | 41.82072 | 12.27144 | 11 ft | 57 kts | 183° |
| 2026-05-07 19:14 | 41.81743 | 12.27049 | 12 ft | 39 kts | 192° |
| 2026-05-07 19:14 | 41.81538 | 12.27112 | 12 ft | 31 kts | 164° |
| 2026-05-07 19:14 | 41.81329 | 12.27194 | 13 ft | 32 kts | 162° |
| 2026-05-07 19:15 | 41.81115 | 12.27288 | 14 ft | 33 kts | 162° |
| 2026-05-07 19:15 | 41.80889 | 12.27348 | 12 ft | 34 kts | 188° |
| 2026-05-07 19:15 | 41.80671 | 12.27252 | 13 ft | 33 kts | 231° |
| 2026-05-07 19:15 | 41.80585 | 12.26968 | 15 ft | 33 kts | 250° |
| 2026-05-07 19:16 | 41.80509 | 12.26683 | 15 ft | 32 kts | 249° |
| 2026-05-07 19:16 | 41.80438 | 12.26428 | 15 ft | 27 kts | 250° |
| 2026-05-07 19:16 | 41.80347 | 12.26376 | 14 ft | 17 kts | 168° |
| 2026-05-07 19:16 | 41.80178 | 12.26384 | 15 ft | 33 kts | 202° |
| 2026-05-07 19:17 | 41.79939 | 12.26234 | 14 ft | 36 kts | 205° |
| 2026-05-07 19:17 | 41.79732 | 12.26091 | 14 ft | 27 kts | 207° |
| 2026-05-07 19:17 | 41.79650 | 12.26012 | 14 ft | 3 kts | 280° |
| 2026-05-07 19:17 | 41.79658 | 12.25984 | 14 ft | 4 kts | 295° |
| 2026-05-07 19:18 | 41.79662 | 12.25972 | 15 ft | 1 kts | 295° |
| 2026-05-07 19:18 | 41.79663 | 12.25969 | 15 ft | 0 kts | 295° |